createdAt,value
2023-05-10T00:01:21.582Z,9.36
2023-05-10T00:03:49.892Z,9.37
2023-05-10T00:06:18.221Z,9.38
2023-05-10T00:08:46.477Z,9.37
2023-05-10T00:11:14.647Z,9.36
2023-05-10T00:13:42.771Z,9.34
2023-05-10T00:16:10.985Z,9.34
2023-05-10T00:18:39.231Z,9.32
2023-05-10T00:21:07.467Z,9.32
2023-05-10T00:23:35.524Z,9.33
2023-05-10T00:26:03.639Z,9.32
2023-05-10T00:28:31.746Z,9.31
2023-05-10T00:30:59.943Z,9.29
2023-05-10T00:33:28.104Z,9.27
2023-05-10T00:35:56.357Z,9.26
2023-05-10T00:38:24.482Z,9.23
2023-05-10T00:40:52.634Z,9.19
2023-05-10T00:43:26.402Z,9.15
2023-05-10T00:45:55.154Z,9.12
2023-05-10T00:48:23.637Z,9.08
2023-05-10T00:50:51.894Z,9.04
2023-05-10T00:53:20.444Z,9.02
2023-05-10T00:55:48.683Z,8.99
2023-05-10T00:58:16.817Z,8.97
2023-05-10T01:00:47.561Z,8.95
2023-05-10T01:03:15.790Z,8.93
2023-05-10T01:05:44.000Z,8.88
2023-05-10T01:08:12.113Z,8.84
2023-05-10T01:10:40.434Z,8.79
2023-05-10T01:13:10.836Z,8.75
2023-05-10T01:15:40.065Z,8.73
2023-05-10T01:18:09.891Z,8.69
2023-05-10T01:20:49.240Z,8.66
2023-05-10T01:23:58.715Z,8.63
2023-05-10T01:26:43.880Z,8.58
2023-05-10T01:29:41.249Z,8.53
2023-05-10T01:32:30.651Z,8.47
2023-05-10T01:35:11.251Z,8.42
2023-05-10T01:37:50.340Z,8.38
2023-05-10T01:40:31.573Z,8.35
2023-05-10T01:43:04.380Z,8.34
2023-05-10T01:45:46.987Z,8.31
2023-05-10T01:48:16.174Z,8.30
2023-05-10T01:50:46.400Z,8.29
2023-05-10T01:53:19.801Z,8.28
2023-05-10T01:55:51.957Z,8.28
2023-05-10T01:58:36.302Z,8.28
2023-05-10T02:01:06.936Z,8.29
2023-05-10T02:03:37.800Z,8.25
2023-05-10T02:06:07.856Z,8.24
2023-05-10T02:08:38.242Z,8.23
2023-05-10T02:11:06.822Z,8.21
2023-05-10T02:13:37.757Z,8.19
2023-05-10T02:16:07.562Z,8.17
2023-05-10T02:18:37.694Z,8.16
2023-05-10T02:21:06.192Z,8.13
2023-05-10T02:23:36.003Z,8.10
2023-05-10T02:26:06.866Z,8.07
2023-05-10T02:28:36.645Z,8.06
2023-05-10T02:31:06.867Z,8.06
2023-05-10T02:33:35.808Z,8.05
2023-05-10T02:36:04.900Z,8.02
2023-05-10T02:38:34.349Z,7.97
2023-05-10T02:41:05.314Z,7.92
2023-05-10T02:43:34.866Z,7.89
2023-05-10T02:46:03.540Z,7.87
2023-05-10T02:48:31.877Z,7.84
2023-05-10T02:51:06.816Z,7.81
2023-05-10T02:53:39.653Z,7.77
2023-05-10T02:56:16.348Z,7.76
2023-05-10T02:58:44.589Z,7.72
2023-05-10T03:01:12.813Z,7.68
2023-05-10T03:03:40.927Z,7.64
2023-05-10T03:06:10.559Z,7.63
2023-05-10T03:08:38.908Z,7.64
2023-05-10T03:11:48.323Z,7.63
2023-05-10T03:15:02.399Z,7.63
2023-05-10T03:17:53.912Z,7.58
2023-05-10T03:20:30.325Z,7.57
2023-05-10T03:23:21.002Z,7.56
2023-05-10T03:25:51.735Z,7.57
2023-05-10T03:28:22.174Z,7.55
2023-05-10T03:30:51.174Z,7.56
2023-05-10T03:33:19.331Z,7.59
2023-05-10T03:35:48.038Z,7.63
2023-05-10T03:38:16.491Z,7.70
2023-05-10T03:40:44.639Z,7.79
2023-05-10T03:43:12.966Z,7.88
2023-05-10T03:45:41.191Z,7.97
2023-05-10T03:48:09.415Z,8.04
2023-05-10T03:50:37.607Z,8.10
2023-05-10T03:53:05.923Z,8.19
2023-05-10T03:55:37.095Z,8.30
2023-05-10T03:58:05.410Z,8.42
2023-05-10T04:00:34.552Z,8.55
2023-05-10T04:03:03.071Z,8.67
2023-05-10T04:05:31.231Z,8.79
2023-05-10T04:07:59.353Z,8.90
2023-05-10T04:10:27.567Z,8.98
2023-05-10T04:12:55.728Z,9.08
2023-05-10T04:15:24.231Z,9.18
2023-05-10T04:17:52.366Z,9.27
2023-05-10T04:20:20.504Z,9.36
2023-05-10T04:22:48.765Z,9.46
2023-05-10T04:25:16.861Z,9.55
2023-05-10T04:27:44.999Z,9.60
2023-05-10T04:30:13.526Z,9.66
2023-05-10T04:32:41.684Z,9.72
2023-05-10T04:35:11.674Z,9.72
2023-05-10T04:37:39.840Z,9.74
2023-05-10T04:40:08.890Z,9.78
2023-05-10T04:42:37.046Z,9.84
2023-05-10T04:45:06.037Z,9.90
2023-05-10T04:47:34.529Z,9.99
2023-05-10T04:50:06.633Z,10.11
2023-05-10T04:52:34.998Z,10.22
2023-05-10T04:55:03.287Z,10.30
2023-05-10T04:57:31.472Z,10.38
2023-05-10T05:00:01.020Z,10.47
2023-05-10T05:02:29.172Z,10.58
2023-05-10T05:04:58.903Z,10.68
2023-05-10T05:07:27.203Z,10.78
2023-05-10T05:09:55.381Z,10.85
2023-05-10T05:12:24.122Z,10.90
2023-05-10T05:14:52.581Z,10.92
2023-05-10T05:17:20.761Z,10.98
2023-05-10T05:19:49.017Z,11.07
2023-05-10T05:22:18.976Z,11.16
2023-05-10T05:24:47.823Z,11.24
2023-05-10T05:27:16.028Z,11.38
2023-05-10T05:29:44.175Z,11.47
2023-05-10T05:32:12.429Z,11.48
2023-05-10T05:34:40.639Z,11.51
2023-05-10T05:37:14.147Z,11.55
2023-05-10T05:39:43.421Z,11.63
2023-05-10T05:42:12.934Z,11.73
2023-05-10T05:44:41.185Z,11.80
2023-05-10T05:47:09.786Z,11.85
2023-05-10T05:49:37.902Z,11.90
2023-05-10T05:52:06.212Z,11.94
2023-05-10T05:54:34.862Z,11.98
2023-05-10T05:57:03.451Z,12.02
2023-05-10T05:59:31.572Z,12.03
2023-05-10T06:01:59.894Z,12.05
2023-05-10T06:04:28.197Z,12.15
2023-05-10T06:06:56.503Z,12.27
2023-05-10T06:09:25.647Z,12.33
2023-05-10T06:11:53.757Z,12.39
2023-05-10T06:14:22.439Z,12.46
2023-05-10T06:16:51.011Z,12.45
2023-05-10T06:19:19.241Z,12.49
2023-05-10T06:21:47.297Z,12.56
2023-05-10T06:24:15.465Z,12.65
2023-05-10T06:26:44.072Z,12.76
2023-05-10T06:29:12.198Z,12.79
2023-05-10T06:31:42.735Z,12.79
2023-05-10T06:34:12.702Z,12.82
2023-05-10T06:36:40.802Z,12.81
2023-05-10T06:39:13.107Z,12.85
2023-05-10T06:41:41.515Z,12.86
2023-05-10T06:44:09.811Z,12.89
2023-05-10T06:46:38.073Z,12.91
2023-05-10T06:49:06.189Z,12.99
2023-05-10T06:51:34.735Z,13.00
2023-05-10T06:54:02.956Z,12.98
2023-05-10T06:56:31.220Z,12.95
2023-05-10T06:58:59.541Z,12.97
2023-05-10T07:01:27.753Z,13.04
2023-05-10T07:03:56.455Z,13.09
2023-05-10T07:06:33.447Z,13.13
2023-05-10T07:09:02.076Z,13.20
2023-05-10T07:11:30.436Z,13.25
2023-05-10T07:13:58.545Z,13.29
2023-05-10T07:16:26.879Z,13.34
2023-05-10T07:18:55.282Z,13.33
2023-05-10T07:21:25.278Z,13.35
2023-05-10T07:23:53.452Z,13.38
2023-05-10T07:26:21.952Z,13.37
2023-05-10T07:28:50.043Z,13.37
2023-05-10T07:31:18.154Z,13.40
2023-05-10T07:33:46.838Z,13.41
2023-05-10T07:36:15.422Z,13.44
2023-05-10T07:38:43.600Z,13.48
2023-05-10T07:41:13.487Z,13.58
2023-05-10T07:43:41.621Z,13.59
2023-05-10T07:46:11.111Z,13.61
2023-05-10T07:48:39.366Z,13.66
2023-05-10T07:51:08.254Z,13.69
2023-05-10T07:53:36.692Z,13.70
2023-05-10T07:56:28.087Z,13.73
2023-05-10T07:59:01.216Z,13.73
2023-05-10T08:01:35.902Z,13.71
2023-05-10T08:04:04.299Z,13.67
2023-05-10T08:06:32.519Z,13.64
2023-05-10T08:09:00.855Z,13.70
2023-05-10T08:11:29.203Z,13.74
2023-05-10T08:13:57.344Z,13.75
2023-05-10T08:16:25.527Z,13.77
2023-05-10T08:18:56.235Z,13.80
2023-05-10T08:21:24.552Z,13.82
2023-05-10T08:23:52.799Z,13.85
2023-05-10T08:26:22.429Z,13.89
2023-05-10T08:28:50.624Z,13.94
2023-05-10T08:31:19.214Z,13.99
2023-05-10T08:33:47.550Z,14.06
2023-05-10T08:36:20.768Z,14.12
2023-05-10T08:38:53.130Z,14.14
2023-05-10T08:41:22.416Z,14.18
2023-05-10T08:43:52.243Z,14.19
2023-05-10T08:46:23.533Z,14.16
2023-05-10T08:48:53.217Z,14.18
2023-05-10T08:51:27.717Z,14.17
2023-05-10T08:53:56.096Z,14.16
2023-05-10T08:56:25.116Z,14.11
2023-05-10T08:58:53.685Z,14.09
2023-05-10T09:01:22.739Z,14.09
2023-05-10T09:03:54.442Z,14.13
2023-05-10T09:06:23.487Z,14.19
2023-05-10T09:08:53.797Z,14.22
2023-05-10T09:11:26.897Z,14.24
2023-05-10T09:13:55.276Z,14.30
2023-05-10T09:16:24.932Z,14.31
2023-05-10T09:18:53.177Z,14.38
2023-05-10T09:21:21.637Z,14.43
2023-05-10T09:23:51.278Z,14.50
2023-05-10T09:26:24.663Z,14.53
2023-05-10T09:28:57.535Z,14.56
2023-05-10T09:31:29.003Z,14.56
2023-05-10T09:33:57.271Z,14.55
2023-05-10T09:36:25.421Z,14.52
2023-05-10T09:38:53.746Z,14.52
2023-05-10T09:41:26.021Z,14.61
2023-05-10T09:43:57.408Z,14.71
2023-05-10T09:46:25.971Z,14.81
2023-05-10T09:48:54.110Z,14.87
2023-05-10T09:51:25.318Z,14.94
2023-05-10T09:54:17.727Z,15.03
2023-05-10T09:56:46.336Z,15.14
2023-05-10T09:59:14.452Z,15.21
2023-05-10T10:01:42.708Z,15.26
2023-05-10T10:04:11.850Z,15.26
2023-05-10T10:06:41.000Z,15.24
2023-05-10T10:09:20.254Z,15.20
2023-05-10T10:11:50.490Z,15.15
2023-05-10T10:14:20.037Z,15.12
2023-05-10T10:17:05.919Z,15.10
2023-05-10T10:19:38.810Z,15.04
2023-05-10T10:22:08.963Z,15.00
2023-05-10T10:24:37.341Z,15.02
2023-05-10T10:27:28.021Z,15.06
2023-05-10T10:30:24.414Z,15.16
2023-05-10T10:33:32.601Z,15.24
2023-05-10T10:36:02.919Z,15.29
2023-05-10T10:38:39.564Z,15.29
2023-05-10T10:41:27.932Z,15.28
2023-05-10T10:44:25.032Z,15.30
2023-05-10T10:47:06.970Z,15.33
2023-05-10T10:49:41.113Z,15.37
2023-05-10T10:52:34.395Z,15.41
2023-05-10T10:55:11.792Z,15.44
2023-05-10T10:57:48.802Z,15.44
2023-05-10T11:00:23.971Z,15.49
2023-05-10T11:03:08.066Z,15.52
2023-05-10T11:05:45.941Z,15.54
2023-05-10T11:08:19.644Z,15.57
2023-05-10T11:11:08.327Z,15.58
2023-05-10T11:13:39.452Z,15.59
2023-05-10T11:16:26.474Z,15.58
2023-05-10T11:19:05.345Z,15.59
2023-05-10T11:21:34.980Z,15.63
2023-05-10T11:24:15.343Z,15.65
2023-05-10T11:26:43.975Z,15.64
2023-05-10T11:29:14.798Z,15.66
2023-05-10T11:31:46.204Z,15.69
2023-05-10T11:34:35.847Z,15.69
2023-05-10T11:37:04.132Z,15.67
2023-05-10T11:39:33.316Z,15.65
2023-05-10T11:42:01.504Z,15.65
2023-05-10T11:44:33.969Z,15.61
2023-05-10T11:47:02.967Z,15.58
2023-05-10T11:49:31.269Z,15.59
2023-05-10T11:52:07.997Z,15.60
2023-05-10T11:54:36.362Z,15.64
2023-05-10T11:57:05.034Z,15.67
2023-05-10T11:59:33.410Z,15.68
2023-05-10T12:02:01.766Z,15.72
2023-05-10T12:04:30.652Z,15.78
2023-05-10T12:06:59.282Z,15.83
2023-05-10T12:09:42.667Z,15.86
2023-05-10T12:12:17.928Z,15.91
2023-05-10T12:14:51.689Z,15.94
2023-05-10T12:17:19.821Z,15.97
2023-05-10T12:19:48.233Z,16.01
2023-05-10T12:22:16.397Z,16.01
2023-05-10T12:24:46.482Z,16.04
2023-05-10T12:27:15.805Z,16.04
2023-05-10T12:29:47.181Z,16.06
2023-05-10T12:32:15.340Z,16.08
2023-05-10T12:34:43.756Z,16.10
2023-05-10T12:37:11.955Z,16.11
2023-05-10T12:39:42.342Z,16.13
2023-05-10T12:42:11.532Z,16.15
2023-05-10T12:44:40.938Z,16.16
2023-05-10T12:47:09.276Z,16.17
2023-05-10T12:49:37.477Z,16.18
2023-05-10T12:52:05.712Z,16.23
2023-05-10T12:54:33.939Z,16.27
2023-05-10T12:57:02.037Z,16.30
2023-05-10T12:59:30.280Z,16.36
2023-05-10T13:01:58.987Z,16.41
2023-05-10T13:04:27.208Z,16.43
2023-05-10T13:06:59.464Z,16.46
2023-05-10T13:09:30.265Z,16.47
2023-05-10T13:11:58.770Z,16.50
2023-05-10T13:14:28.741Z,16.56
2023-05-10T13:16:57.043Z,16.61
2023-05-10T13:19:25.502Z,16.62
2023-05-10T13:21:53.763Z,16.60
2023-05-10T13:24:22.837Z,16.57
2023-05-10T13:26:51.041Z,16.53
2023-05-10T13:29:20.146Z,16.49
2023-05-10T13:31:48.534Z,16.47
2023-05-10T13:34:16.789Z,16.47
2023-05-10T13:36:44.930Z,16.48
2023-05-10T13:39:13.251Z,16.49
2023-05-10T13:41:41.502Z,16.50
2023-05-10T13:44:10.126Z,16.52
2023-05-10T13:46:39.584Z,16.54
2023-05-10T13:49:08.111Z,16.54
2023-05-10T13:51:37.084Z,16.53
2023-05-10T13:54:13.558Z,16.53
2023-05-10T13:56:43.529Z,16.55
2023-05-10T13:59:11.719Z,16.54
2023-05-10T14:01:39.895Z,16.53
2023-05-10T14:04:11.182Z,16.52
2023-05-10T14:06:39.599Z,16.54
2023-05-10T14:09:07.801Z,16.54
2023-05-10T14:11:36.019Z,16.54
2023-05-10T14:14:04.525Z,16.56
2023-05-10T14:16:32.827Z,16.58
2023-05-10T14:19:01.108Z,16.63
2023-05-10T14:21:31.681Z,16.70
2023-05-10T14:23:59.946Z,16.78
2023-05-10T14:26:28.484Z,16.85
2023-05-10T14:28:56.629Z,16.88
2023-05-10T14:31:26.386Z,16.89
2023-05-10T14:33:54.504Z,16.89
2023-05-10T14:36:23.634Z,16.88
2023-05-10T14:38:51.982Z,16.86
2023-05-10T14:41:20.092Z,16.84
2023-05-10T14:43:48.221Z,16.83
2023-05-10T14:46:16.986Z,16.83
2023-05-10T14:48:45.178Z,16.82
2023-05-10T14:51:13.390Z,16.80
2023-05-10T14:53:41.680Z,16.76
2023-05-10T14:56:09.922Z,16.72
2023-05-10T14:58:38.172Z,16.68
2023-05-10T15:01:06.448Z,16.63
2023-05-10T15:03:35.457Z,16.58
2023-05-10T15:06:05.617Z,16.56
2023-05-10T15:08:33.727Z,16.53
2023-05-10T15:11:02.126Z,16.51
2023-05-10T15:13:30.466Z,16.48
2023-05-10T15:15:58.725Z,16.46
2023-05-10T15:18:26.877Z,16.44
2023-05-10T15:20:56.322Z,16.43
2023-05-10T15:23:24.524Z,16.43
2023-05-10T15:25:56.461Z,16.42
2023-05-10T15:28:24.748Z,16.40
2023-05-10T15:30:52.858Z,16.39
2023-05-10T15:33:20.966Z,16.38
2023-05-10T15:35:49.301Z,16.37
2023-05-10T15:38:17.408Z,16.37
2023-05-10T15:40:45.519Z,16.38
2023-05-10T15:43:13.668Z,16.38
2023-05-10T15:45:42.112Z,16.37
2023-05-10T15:48:10.292Z,16.35
2023-05-10T15:50:38.614Z,16.34
2023-05-10T15:53:06.799Z,16.31
2023-05-10T15:55:35.456Z,16.28
2023-05-10T15:58:03.564Z,16.25
2023-05-10T16:00:31.737Z,16.20
2023-05-10T16:02:59.897Z,16.17
2023-05-10T16:05:32.073Z,16.14
2023-05-10T16:08:01.990Z,16.11
2023-05-10T16:10:33.332Z,16.09
2023-05-10T16:13:03.339Z,16.08
2023-05-10T16:15:31.558Z,16.06
2023-05-10T16:17:59.965Z,16.04
2023-05-10T16:20:28.451Z,16.02
2023-05-10T16:22:56.756Z,16.00
2023-05-10T16:25:24.942Z,15.97
2023-05-10T16:27:53.108Z,15.97
2023-05-10T16:30:23.656Z,15.95
2023-05-10T16:32:52.256Z,15.94
2023-05-10T16:35:23.655Z,15.92
2023-05-10T16:37:52.662Z,15.89
2023-05-10T16:40:21.075Z,15.86
2023-05-10T16:42:49.201Z,15.84
2023-05-10T16:45:17.509Z,15.82
2023-05-10T16:47:46.181Z,15.80
2023-05-10T16:50:14.992Z,15.77
2023-05-10T16:52:43.181Z,15.74
2023-05-10T16:55:11.428Z,15.72
2023-05-10T16:57:39.671Z,15.69
2023-05-10T17:00:11.879Z,15.66
2023-05-10T17:02:40.109Z,15.63
2023-05-10T17:05:08.773Z,15.60
2023-05-10T17:07:36.873Z,15.58
2023-05-10T17:10:05.726Z,15.54
2023-05-10T17:12:34.142Z,15.52
2023-05-10T17:15:02.349Z,15.50
2023-05-10T17:17:30.576Z,15.47
2023-05-10T17:19:58.877Z,15.44
2023-05-10T17:22:27.164Z,15.41
2023-05-10T17:24:55.273Z,15.38
2023-05-10T17:27:23.371Z,15.35
2023-05-10T17:29:57.171Z,15.31
2023-05-10T17:32:26.243Z,15.27
2023-05-10T17:34:54.520Z,15.22
2023-05-10T17:37:22.977Z,15.18
2023-05-10T17:39:51.087Z,15.13
2023-05-10T17:42:20.765Z,15.09
2023-05-10T17:44:48.989Z,15.05
2023-05-10T17:47:18.167Z,14.99
2023-05-10T17:49:46.260Z,14.94
2023-05-10T17:52:15.097Z,14.88
2023-05-10T17:54:46.157Z,14.82
2023-05-10T17:57:14.347Z,14.77
2023-05-10T17:59:42.603Z,14.71
2023-05-10T18:02:10.741Z,14.65
2023-05-10T18:04:43.003Z,14.60
2023-05-10T18:07:11.330Z,14.54
2023-05-10T18:09:39.447Z,14.48
2023-05-10T18:12:07.682Z,14.42
2023-05-10T18:14:40.995Z,14.37
2023-05-10T18:17:09.938Z,14.32
2023-05-10T18:19:38.468Z,14.27
2023-05-10T18:22:08.926Z,14.23
2023-05-10T18:24:39.898Z,14.17
2023-05-10T18:27:09.269Z,14.12
2023-05-10T18:29:37.513Z,14.06
2023-05-10T18:32:06.590Z,14.03
2023-05-10T18:34:34.869Z,14.00
2023-05-10T18:37:07.763Z,13.95
2023-05-10T18:39:39.207Z,13.92
2023-05-10T18:42:08.216Z,13.87
2023-05-10T18:44:36.433Z,13.83
2023-05-10T18:47:04.768Z,13.81
2023-05-10T18:49:33.006Z,13.77
2023-05-10T18:52:01.139Z,13.73
2023-05-10T18:54:30.046Z,13.66
2023-05-10T18:56:58.798Z,13.58
2023-05-10T18:59:28.106Z,13.52
2023-05-10T19:01:57.602Z,13.48
2023-05-10T19:04:27.114Z,13.45
2023-05-10T19:06:56.100Z,13.42
2023-05-10T19:09:27.101Z,13.39
2023-05-10T19:11:55.409Z,13.34
2023-05-10T19:14:25.200Z,13.29
2023-05-10T19:16:54.506Z,13.25
2023-05-10T19:19:24.680Z,13.22
2023-05-10T19:21:52.995Z,13.20
2023-05-10T19:24:23.882Z,13.19
2023-05-10T19:26:52.067Z,13.16
2023-05-10T19:29:20.285Z,13.12
2023-05-10T19:31:49.235Z,13.07
2023-05-10T19:34:17.520Z,13.05
2023-05-10T19:36:45.704Z,13.03
2023-05-10T19:39:14.007Z,13.01
2023-05-10T19:41:42.094Z,12.99
2023-05-10T19:44:10.295Z,12.95
2023-05-10T19:46:38.470Z,12.92
2023-05-10T19:49:06.717Z,12.89
2023-05-10T19:51:34.848Z,12.86
2023-05-10T19:54:03.080Z,12.83
2023-05-10T19:56:31.337Z,12.81
2023-05-10T19:58:59.675Z,12.77
2023-05-10T20:01:28.316Z,12.75
2023-05-10T20:03:56.978Z,12.72
2023-05-10T20:06:25.207Z,12.66
2023-05-10T20:08:53.441Z,12.60
2023-05-10T20:11:21.809Z,12.55
2023-05-10T20:13:49.965Z,12.47
2023-05-10T20:16:18.315Z,12.34
2023-05-10T20:18:46.756Z,12.26
2023-05-10T20:21:15.043Z,12.21
2023-05-10T20:23:43.594Z,12.16
2023-05-10T20:26:12.430Z,12.10
2023-05-10T20:28:41.940Z,11.99
2023-05-10T20:31:10.147Z,11.95
2023-05-10T20:33:38.413Z,11.94
2023-05-10T20:36:09.542Z,11.95
2023-05-10T20:38:37.900Z,11.94
2023-05-10T20:41:06.204Z,11.87
2023-05-10T20:43:34.577Z,11.84
2023-05-10T20:46:05.454Z,11.81
2023-05-10T20:48:34.276Z,11.79
2023-05-10T20:51:02.711Z,11.71
2023-05-10T20:53:31.037Z,11.68
2023-05-10T20:55:59.287Z,11.69
2023-05-10T20:58:27.432Z,11.70
2023-05-10T21:00:55.735Z,11.68
2023-05-10T21:03:23.974Z,11.65
2023-05-10T21:05:52.254Z,11.59
2023-05-10T21:08:20.418Z,11.58
2023-05-10T21:10:48.549Z,11.56
2023-05-10T21:13:17.159Z,11.56
2023-05-10T21:15:45.388Z,11.57
2023-05-10T21:18:13.558Z,11.51
2023-05-10T21:20:41.773Z,11.50
2023-05-10T21:23:09.917Z,11.44
2023-05-10T21:25:38.139Z,11.36
2023-05-10T21:28:06.321Z,11.33
2023-05-10T21:30:34.484Z,11.35
2023-05-10T21:33:03.586Z,11.33
2023-05-10T21:35:31.898Z,11.30
2023-05-10T21:38:00.065Z,11.27
2023-05-10T21:40:28.996Z,11.27
2023-05-10T21:42:57.868Z,11.26
2023-05-10T21:45:26.225Z,11.24
2023-05-10T21:47:54.666Z,11.25
2023-05-10T21:50:22.962Z,11.26
2023-05-10T21:52:51.696Z,11.26
2023-05-10T21:55:19.871Z,11.21
2023-05-10T21:57:48.126Z,11.18
2023-05-10T22:00:18.949Z,11.16
2023-05-10T22:02:47.622Z,11.15
2023-05-10T22:05:15.901Z,11.12
2023-05-10T22:07:44.235Z,11.08
2023-05-10T22:10:12.418Z,11.06
2023-05-10T22:12:40.821Z,11.04
2023-05-10T22:15:10.847Z,11.03
2023-05-10T22:17:40.417Z,11.01
2023-05-10T22:20:09.764Z,10.99
2023-05-10T22:22:38.062Z,10.95
2023-05-10T22:25:07.646Z,10.93
2023-05-10T22:27:36.053Z,10.92
2023-05-10T22:30:04.854Z,10.91
2023-05-10T22:32:33.543Z,10.87
2023-05-10T22:35:01.837Z,10.85
2023-05-10T22:37:30.071Z,10.84
2023-05-10T22:39:58.254Z,10.84
2023-05-10T22:42:26.418Z,10.84
2023-05-10T22:44:54.573Z,10.83
2023-05-10T22:47:22.701Z,10.81
2023-05-10T22:49:51.864Z,10.75
2023-05-10T22:52:20.024Z,10.68
2023-05-10T22:54:48.138Z,10.64
2023-05-10T22:57:17.245Z,10.59
2023-05-10T22:59:45.435Z,10.57
2023-05-10T23:02:15.111Z,10.53
2023-05-10T23:04:43.403Z,10.51
2023-05-10T23:07:11.800Z,10.48
2023-05-10T23:09:39.960Z,10.43
2023-05-10T23:12:08.259Z,10.40
2023-05-10T23:14:36.412Z,10.38
2023-05-10T23:17:04.548Z,10.37
2023-05-10T23:19:32.663Z,10.32
2023-05-10T23:22:00.811Z,10.28
2023-05-10T23:24:29.143Z,10.25
2023-05-10T23:26:57.349Z,10.22
2023-05-10T23:29:26.350Z,10.20
2023-05-10T23:31:54.608Z,10.17
2023-05-10T23:34:22.746Z,10.12
2023-05-10T23:36:50.969Z,10.09
2023-05-10T23:39:19.167Z,10.07
2023-05-10T23:41:47.865Z,10.04
2023-05-10T23:44:17.071Z,10.02
2023-05-10T23:46:45.235Z,10.01
2023-05-10T23:49:13.426Z,9.97
2023-05-10T23:51:41.529Z,9.93
2023-05-10T23:54:09.650Z,9.91
2023-05-10T23:56:37.757Z,9.88
2023-05-10T23:59:06.170Z,9.84
